Time;durP1;ratioP1;P1;durP2;ratioP2;P2;SDS_P1;SDS_P2;PMS_P1;PMS_P2;Temp;Humidity;BMP_temperature;BMP_pressure;BME280_temperature;BME280_humidity;BME280_pressure;Samples;Min_cycle;Max_cycle;Signal;HPM_P1;HPM_P2
2022/04/30 00:02:19;;;;;;;1.98;1.88;;;7.80;99.90;;;;;;5092566;28;20442;-37
2022/04/30 00:04:46;;;;;;;4.38;2.40;;;7.80;99.90;;;;;;5091983;28;20035;-37
2022/04/30 00:07:14;;;;;;;6.28;2.67;;;7.80;99.90;;;;;;5088437;28;20099;-36
2022/04/30 00:09:42;;;;;;;6.22;2.25;;;7.80;99.90;;;;;;5091551;28;20487;-36
2022/04/30 00:12:09;;;;;;;6.63;2.13;;;7.80;99.90;;;;;;5093854;28;20035;-37
2022/04/30 00:14:36;;;;;;;3.20;2.30;;;7.80;99.90;;;;;;5092035;28;20048;-37
2022/04/30 00:17:02;;;;;;;5.32;2.85;;;7.70;99.90;;;;;;5090531;28;20078;-38
2022/04/30 00:19:29;;;;;;;3.92;2.67;;;7.80;99.90;;;;;;5093644;28;20049;-36
2022/04/30 00:21:55;;;;;;;4.20;1.85;;;7.70;99.90;;;;;;5092106;28;20036;-36
2022/04/30 00:24:21;;;;;;;2.75;2.13;;;7.70;99.90;;;;;;5090871;28;20043;-37
2022/04/30 00:26:47;;;;;;;3.50;2.22;;;7.70;99.90;;;;;;5093901;28;20050;-36
2022/04/30 00:29:13;;;;;;;5.57;2.50;;;7.70;99.90;;;;;;5077646;28;20025;-36
2022/04/30 00:31:39;;;;;;;3.83;2.00;;;7.70;99.90;;;;;;5089718;28;20026;-37
2022/04/30 00:34:05;;;;;;;3.80;2.42;;;7.80;99.90;;;;;;5090963;28;20035;-36
2022/04/30 00:36:31;;;;;;;8.70;3.00;;;7.80;99.90;;;;;;5089137;28;20008;-36
2022/04/30 00:38:57;;;;;;;6.05;2.15;;;7.70;99.90;;;;;;5088265;28;20033;-37
2022/04/30 00:41:23;;;;;;;6.80;2.55;;;7.70;99.90;;;;;;5091188;28;20110;-36
2022/04/30 00:43:51;;;;;;;4.18;2.20;;;7.70;99.90;;;;;;5088941;28;20496;-35
2022/04/30 00:46:19;;;;;;;5.72;2.80;;;7.70;99.90;;;;;;5089682;28;20522;-38
2022/04/30 00:48:46;;;;;;;5.15;2.53;;;7.70;99.90;;;;;;5089859;28;20503;-36
2022/04/30 00:51:19;;;;;;;6.60;3.13;;;7.60;99.90;;;;;;5088163;28;20024;-36
2022/04/30 00:53:50;;;;;;;3.33;2.03;;;7.60;99.90;;;;;;5090513;28;20179;-33
2022/04/30 00:56:22;;;;;;;3.72;2.30;;;7.50;99.90;;;;;;5091524;28;20028;-32
2022/04/30 00:58:48;;;;;;;4.82;2.20;;;7.60;99.90;;;;;;5088538;28;20058;-33
2022/04/30 01:01:19;;;;;;;3.47;2.50;;;7.50;99.90;;;;;;5087580;28;20059;-30
2022/04/30 01:03:44;;;;;;;3.70;2.05;;;7.50;99.90;;;;;;5088892;28;20055;-30
2022/04/30 01:06:11;;;;;;;6.15;2.95;;;7.50;99.90;;;;;;5093122;28;20063;-55
2022/04/30 01:08:38;;;;;;;8.07;2.53;;;7.40;99.90;;;;;;5091773;28;20488;-31
2022/04/30 01:11:05;;;;;;;4.82;2.35;;;7.40;99.90;;;;;;5089504;28;20495;-30
2022/04/30 01:13:36;;;;;;;4.75;2.70;;;7.40;99.90;;;;;;5091253;28;20028;-29
2022/04/30 01:16:03;;;;;;;6.70;2.60;;;7.40;99.90;;;;;;5093821;28;20032;-36
2022/04/30 01:18:29;;;;;;;5.75;2.70;;;7.40;99.90;;;;;;5093153;28;20023;-36
2022/04/30 01:21:03;;;;;;;8.32;2.83;;;7.40;99.90;;;;;;5092138;28;20028;-36
2022/04/30 01:23:30;;;;;;;6.63;2.88;;;7.30;99.90;;;;;;5095626;28;20507;-37
2022/04/30 01:25:57;;;;;;;4.35;2.67;;;7.30;99.90;;;;;;5095242;28;20032;-36
2022/04/30 01:28:23;;;;;;;4.47;3.05;;;7.20;99.90;;;;;;5095313;28;20047;-38
2022/04/30 01:30:49;;;;;;;11.05;2.80;;;7.20;99.90;;;;;;5095596;28;20490;-38
2022/04/30 01:38:43;;;;;;;7.80;3.25;;;7.10;99.90;;;;;;5093561;28;20131;-34
2022/04/30 01:41:08;;;;;;;4.65;2.97;;;7.00;99.90;;;;;;5093590;28;20081;-38
2022/04/30 01:43:35;;;;;;;4.32;2.80;;;7.00;99.90;;;;;;5094000;28;20028;-38
2022/04/30 01:46:03;;;;;;;10.98;2.55;;;7.10;99.90;;;;;;5089776;28;20021;-37
2022/04/30 01:48:29;;;;;;;7.15;2.80;;;7.10;99.90;;;;;;5091163;28;20467;-38
2022/04/30 01:50:55;;;;;;;4.55;2.92;;;7.10;99.90;;;;;;5093631;28;20020;-35
2022/04/30 01:53:21;;;;;;;6.38;3.20;;;7.10;99.90;;;;;;5091187;28;20046;-37
2022/04/30 01:55:46;;;;;;;5.13;2.92;;;7.00;99.90;;;;;;5094384;28;20463;-34
2022/04/30 01:58:12;;;;;;;9.68;4.63;;;7.00;99.90;;;;;;5093296;28;20048;-29
2022/04/30 02:00:38;;;;;;;6.22;3.28;;;7.00;99.90;;;;;;5091877;28;20024;-29
2022/04/30 02:03:08;;;;;;;10.77;3.45;;;7.00;99.90;;;;;;5096291;28;20483;-38
2022/04/30 02:05:35;;;;;;;8.20;3.85;;;7.00;99.90;;;;;;5093738;28;20036;-36
2022/04/30 02:08:12;;;;;;;4.20;2.83;;;7.00;99.90;;;;;;5094149;28;20028;-31
2022/04/30 02:10:40;;;;;;;6.07;2.65;;;7.10;99.90;;;;;;5086871;28;20484;-46
2022/04/30 02:13:08;;;;;;;7.18;2.90;;;7.10;99.90;;;;;;5091637;28;20499;-37
2022/04/30 02:15:34;;;;;;;5.65;2.53;;;7.10;99.90;;;;;;5090405;28;20028;-37
2022/04/30 02:18:20;;;;;;;6.50;3.22;;;7.10;99.90;;;;;;5086710;28;20472;-37
2022/04/30 02:20:49;;;;;;;5.30;2.55;;;7.00;99.90;;;;;;5093695;28;20035;-37
2022/04/30 02:23:15;;;;;;;7.05;3.00;;;7.00;99.90;;;;;;5089737;28;20016;-37
2022/04/30 02:25:42;;;;;;;4.00;2.72;;;7.00;99.90;;;;;;5091297;28;20518;-37
2022/04/30 02:28:08;;;;;;;5.15;2.95;;;7.00;99.90;;;;;;5095840;28;20140;-37
2022/04/30 02:30:36;;;;;;;8.75;3.13;;;7.00;99.90;;;;;;5094229;28;20028;-28
2022/04/30 02:33:10;;;;;;;5.45;2.88;;;6.90;99.90;;;;;;5096048;28;20052;-27
2022/04/30 02:35:39;;;;;;;5.93;3.25;;;7.00;99.90;;;;;;5095612;28;20024;-28
2022/04/30 02:38:08;;;;;;;6.05;2.60;;;7.00;99.90;;;;;;5092985;28;20040;-30
2022/04/30 02:40:34;;;;;;;6.53;3.15;;;7.00;99.90;;;;;;5090901;28;20057;-27
2022/04/30 02:43:15;;;;;;;5.07;3.15;;;7.00;99.90;;;;;;5095537;28;20086;-29
2022/04/30 02:45:42;;;;;;;6.65;2.78;;;7.00;99.90;;;;;;5091847;28;20081;-29
2022/04/30 02:48:09;;;;;;;2.58;2.08;;;7.10;99.90;;;;;;5083038;28;20082;-28
2022/04/30 02:50:36;;;;;;;6.30;3.50;;;7.00;99.90;;;;;;5086851;28;20030;-28
2022/04/30 02:53:02;;;;;;;5.25;3.33;;;7.10;99.90;;;;;;5092094;28;20040;-29
2022/04/30 02:55:27;;;;;;;3.45;2.40;;;7.10;99.90;;;;;;5092355;28;20074;-29
2022/04/30 03:00:47;;;;;;;7.65;3.17;;;7.10;99.90;;;;;;5083021;28;20038;-32
2022/04/30 03:03:15;;;;;;;5.97;3.35;;;7.10;99.90;;;;;;5091960;28;20061;-32
2022/04/30 03:08:27;;;;;;;5.32;3.35;;;7.20;99.90;;;;;;5091083;28;20074;-38
2022/04/30 03:10:57;;;;;;;6.43;4.18;;;7.20;99.90;;;;;;5090195;28;20564;-39
2022/04/30 03:13:25;;;;;;;10.18;3.50;;;7.20;99.90;;;;;;5085020;28;20036;-47
2022/04/30 03:15:55;;;;;;;8.32;3.53;;;7.20;99.90;;;;;;5085772;28;20492;-27
2022/04/30 03:23:52;;;;;;;8.25;3.95;;;7.20;99.90;;;;;;5082996;28;20494;-27
2022/04/30 03:26:20;;;;;;;7.38;4.13;;;7.20;99.90;;;;;;5085324;28;20024;-30
2022/04/30 03:28:45;;;;;;;9.98;4.03;;;7.20;99.90;;;;;;5085112;28;20482;-36
2022/04/30 03:31:11;;;;;;;6.68;3.45;;;7.20;99.90;;;;;;5087987;28;20020;-37
2022/04/30 03:33:38;;;;;;;7.35;4.60;;;7.20;99.90;;;;;;5093926;28;20035;-38
2022/04/30 03:36:04;;;;;;;4.50;3.45;;;7.20;99.90;;;;;;5093173;28;20016;-54
2022/04/30 03:38:30;;;;;;;10.30;4.90;;;7.10;99.90;;;;;;5093337;28;20020;-27
2022/04/30 03:40:56;;;;;;;8.05;4.85;;;7.20;99.90;;;;;;5092645;28;20063;-27
2022/04/30 03:43:22;;;;;;;13.40;4.97;;;7.20;99.90;;;;;;5089473;28;20038;-28
2022/04/30 03:45:50;;;;;;;17.63;9.35;;;7.30;99.90;;;;;;5089118;28;20024;-32
2022/04/30 03:48:16;;;;;;;15.32;8.52;;;7.30;99.90;;;;;;5091700;28;20028;-28
2022/04/30 03:50:42;;;;;;;15.50;6.53;;;7.40;99.90;;;;;;5087766;28;20035;-45
2022/04/30 03:53:08;;;;;;;10.57;5.22;;;7.50;99.90;;;;;;5093848;28;20472;-30
2022/04/30 03:55:34;;;;;;;8.35;4.60;;;7.50;99.90;;;;;;5091622;28;20047;-28
2022/04/30 03:58:00;;;;;;;10.60;4.43;;;7.60;99.90;;;;;;5092004;28;20099;-29
2022/04/30 04:00:26;;;;;;;6.72;4.30;;;7.70;99.90;;;;;;5091583;28;20028;-32
2022/04/30 04:02:53;;;;;;;8.55;4.20;;;7.70;99.90;;;;;;5092660;28;20012;-29
2022/04/30 04:05:19;;;;;;;6.68;4.53;;;7.80;99.90;;;;;;5092015;28;20033;-36
2022/04/30 04:07:44;;;;;;;9.55;4.80;;;7.80;99.90;;;;;;5091757;28;20085;-38
2022/04/30 04:10:12;;;;;;;9.77;4.18;;;7.80;99.90;;;;;;5092440;28;20046;-37
2022/04/30 04:12:38;;;;;;;7.45;4.65;;;7.90;99.90;;;;;;5092549;28;20061;-37
2022/04/30 04:17:52;;;;;;;6.63;4.45;;;7.90;99.90;;;;;;5114439;28;20054;-37
2022/04/30 04:20:19;;;;;;;13.23;4.85;;;8.00;99.90;;;;;;5112805;28;20067;-37
2022/04/30 04:22:46;;;;;;;6.07;4.15;;;8.00;99.90;;;;;;5103806;28;20489;-37
2022/04/30 04:27:57;;;;;;;7.40;4.15;;;8.10;99.90;;;;;;5094850;28;20093;-37
2022/04/30 04:30:25;;;;;;;8.65;4.20;;;8.10;99.90;;;;;;5103780;28;20039;-37
2022/04/30 04:32:51;;;;;;;9.93;4.32;;;8.20;99.90;;;;;;5091906;28;20035;-44
2022/04/30 04:35:16;;;;;;;7.07;4.85;;;8.20;99.90;;;;;;5091107;28;20456;-36
2022/04/30 04:37:43;;;;;;;6.47;3.88;;;8.30;99.90;;;;;;5091679;28;20024;-37
2022/04/30 04:40:10;;;;;;;10.50;4.93;;;8.30;99.90;;;;;;5091644;28;20117;-37
2022/04/30 04:42:36;;;;;;;10.73;4.60;;;8.30;99.90;;;;;;5092479;28;20020;-26
2022/04/30 04:45:03;;;;;;;6.00;3.97;;;8.30;99.90;;;;;;5089974;28;20476;-28
2022/04/30 04:47:29;;;;;;;6.95;4.28;;;8.30;99.90;;;;;;5106416;28;20031;-31
2022/04/30 04:49:54;;;;;;;8.65;4.40;;;8.30;99.90;;;;;;5092467;28;20408;-27
2022/04/30 04:52:21;;;;;;;8.02;4.95;;;8.30;99.90;;;;;;5092187;28;20093;-26
2022/04/30 04:54:46;;;;;;;9.82;4.90;;;8.30;99.90;;;;;;5095736;28;20561;-31
2022/04/30 04:57:12;;;;;;;8.82;4.18;;;8.40;99.90;;;;;;5097588;28;20029;-29
2022/04/30 04:59:38;;;;;;;5.90;3.92;;;8.40;99.90;;;;;;5092214;28;20024;-28
2022/04/30 05:02:04;;;;;;;8.05;4.03;;;8.50;99.90;;;;;;5099673;28;20024;-28
2022/04/30 05:04:31;;;;;;;6.00;4.00;;;8.60;99.90;;;;;;5102297;28;20107;-31
2022/04/30 05:06:57;;;;;;;11.57;4.38;;;8.70;99.90;;;;;;5103468;28;20032;-29
2022/04/30 05:09:23;;;;;;;7.65;4.35;;;8.80;99.90;;;;;;5090247;28;20074;-29
2022/04/30 05:11:49;;;;;;;9.30;4.18;;;8.80;99.90;;;;;;5098030;28;20024;-28
2022/04/30 05:14:34;;;;;;;7.47;4.38;;;8.90;99.90;;;;;;5098041;28;20072;-54
2022/04/30 05:17:00;;;;;;;4.07;3.63;;;8.90;99.90;;;;;;5082539;28;20510;-36
2022/04/30 05:19:26;;;;;;;6.10;4.30;;;8.90;99.90;;;;;;5106959;28;20036;-31
2022/04/30 05:21:52;;;;;;;7.72;4.05;;;9.00;99.90;;;;;;5091207;28;20054;-28
2022/04/30 05:24:17;;;;;;;4.70;3.55;;;9.00;99.90;;;;;;5092172;28;20069;-45
2022/04/30 05:26:43;;;;;;;7.18;3.72;;;9.00;99.90;;;;;;5091890;28;20392;-37
2022/04/30 05:29:09;;;;;;;8.95;4.13;;;9.10;99.90;;;;;;5090883;28;20045;-39
2022/04/30 05:31:34;;;;;;;5.45;4.25;;;9.00;99.90;;;;;;5093832;28;20535;-37
2022/04/30 05:34:00;;;;;;;6.88;3.72;;;9.10;99.90;;;;;;5091843;28;20020;-37
2022/04/30 05:36:25;;;;;;;8.80;4.13;;;9.10;99.90;;;;;;5089303;28;20028;-37
2022/04/30 05:38:51;;;;;;;4.30;3.38;;;9.10;99.90;;;;;;5091880;28;20062;-37
2022/04/30 05:41:17;;;;;;;6.18;3.45;;;9.10;99.90;;;;;;5093938;28;20040;-37
2022/04/30 05:43:43;;;;;;;4.25;3.72;;;9.10;99.90;;;;;;5092572;28;20065;-31
2022/04/30 05:46:09;;;;;;;4.57;3.03;;;9.20;99.90;;;;;;5088656;28;20050;-27
2022/04/30 05:48:35;;;;;;;3.85;2.85;;;9.20;99.90;;;;;;5089277;28;20028;-27
2022/04/30 05:51:02;;;;;;;5.28;3.05;;;9.30;99.90;;;;;;5092776;28;20059;-31
2022/04/30 05:53:28;;;;;;;7.75;3.97;;;9.30;99.90;;;;;;5096891;28;20032;-27
2022/04/30 05:55:54;;;;;;;5.55;3.50;;;9.30;99.90;;;;;;5091656;28;20526;-28
2022/04/30 05:58:19;;;;;;;4.80;2.97;;;9.30;99.90;;;;;;5091662;28;20081;-29
2022/04/30 06:00:45;;;;;;;3.90;2.75;;;9.30;99.90;;;;;;5092082;28;20020;-27
2022/04/30 06:03:11;;;;;;;5.65;2.90;;;9.30;99.90;;;;;;5097108;28;20035;-39
2022/04/30 06:05:37;;;;;;;5.00;2.90;;;9.40;99.90;;;;;;5095610;28;20024;-37
2022/04/30 06:08:04;;;;;;;3.70;3.05;;;9.40;99.90;;;;;;5095339;28;20035;-37
2022/04/30 06:10:30;;;;;;;12.60;3.53;;;9.40;99.90;;;;;;5095070;28;20024;-37
2022/04/30 06:12:55;;;;;;;5.20;3.25;;;9.50;99.90;;;;;;5094667;28;20149;-37
2022/04/30 06:15:21;;;;;;;5.63;3.22;;;9.40;99.90;;;;;;5091133;28;20063;-37
2022/04/30 06:17:47;;;;;;;7.63;2.90;;;9.50;99.90;;;;;;5093436;28;20473;-36
2022/04/30 06:20:12;;;;;;;6.50;3.15;;;9.50;99.90;;;;;;5093471;28;20055;-38
2022/04/30 06:22:38;;;;;;;4.32;3.17;;;9.50;99.90;;;;;;5093823;28;20047;-36
2022/04/30 06:25:04;;;;;;;6.63;3.40;;;9.60;99.90;;;;;;5093429;28;20114;-38
2022/04/30 06:27:30;;;;;;;9.48;2.92;;;9.70;99.90;;;;;;5094778;28;20028;-29
2022/04/30 06:29:55;;;;;;;3.67;2.70;;;9.70;99.90;;;;;;5093307;28;20050;-27
2022/04/30 06:32:21;;;;;;;6.80;2.92;;;9.70;99.90;;;;;;5093052;28;20488;-30
2022/04/30 06:34:47;;;;;;;6.10;3.28;;;9.70;99.90;;;;;;5090143;28;20032;-27
2022/04/30 06:37:12;;;;;;;4.70;2.85;;;9.80;99.90;;;;;;5093843;28;20027;-27
2022/04/30 06:39:38;;;;;;;5.50;2.78;;;9.90;99.90;;;;;;5091311;28;20032;-39
2022/04/30 06:42:04;;;;;;;5.38;2.90;;;9.80;99.90;;;;;;5095585;28;20035;-50
2022/04/30 06:44:29;;;;;;;5.97;3.03;;;9.90;99.90;;;;;;5092850;28;20112;-37
2022/04/30 06:46:55;;;;;;;8.65;2.83;;;10.00;99.90;;;;;;5094462;28;20047;-38
2022/04/30 06:49:23;;;;;;;3.83;2.85;;;10.10;99.90;;;;;;5092873;28;20093;-37
2022/04/30 06:51:49;;;;;;;6.05;2.55;;;10.20;99.90;;;;;;5094079;28;20016;-36
2022/04/30 06:57:08;;;;;;;4.90;2.40;;;10.20;99.90;;;;;;5091459;28;20408;-37
2022/04/30 06:59:38;;;;;;;2.47;2.25;;;10.30;99.90;;;;;;5091740;28;20032;-37
2022/04/30 07:02:11;;;;;;;5.18;2.70;;;10.10;99.90;;;;;;5091886;28;20023;-37
2022/04/30 07:04:38;;;;;;;8.98;2.53;;;10.00;99.90;;;;;;5090679;28;20094;-35
2022/04/30 07:07:04;;;;;;;4.10;2.60;;;10.10;99.90;;;;;;5094269;28;20024;-37
2022/04/30 07:09:32;;;;;;;4.70;2.47;;;10.00;99.90;;;;;;5093296;28;20035;-37
2022/04/30 07:11:58;;;;;;;;;;;10.10;99.90;;;;;;5094327;28;20494;-37
2022/04/30 07:14:24;;;;;;;7.40;2.67;;;10.00;99.90;;;;;;5090862;28;20006;-35
2022/04/30 07:16:49;;;;;;;4.47;2.47;;;10.00;99.90;;;;;;5093103;28;20099;-36
2022/04/30 07:19:15;;;;;;;3.33;2.75;;;10.00;99.90;;;;;;5090952;28;20024;-36
2022/04/30 07:21:41;;;;;;;8.75;3.03;;;10.00;99.90;;;;;;5091823;28;20119;-36
2022/04/30 07:24:06;;;;;;;8.90;3.20;;;10.00;99.90;;;;;;5095207;28;20028;-38
2022/04/30 07:26:32;;;;;;;4.28;3.03;;;10.00;99.90;;;;;;5093993;28;20433;-38
2022/04/30 07:28:58;;;;;;;4.70;2.70;;;10.10;99.90;;;;;;5090964;28;20049;-37
2022/04/30 07:31:23;;;;;;;6.35;2.72;;;10.20;99.90;;;;;;5094131;28;20039;-37
2022/04/30 07:33:51;;;;;;;5.70;2.75;;;10.30;99.90;;;;;;5093694;28;20032;-38
2022/04/30 07:36:17;;;;;;;;;;;10.40;99.90;;;;;;5094392;28;20028;-41
2022/04/30 07:38:42;;;;;;;4.72;3.20;;;10.40;99.90;;;;;;5092774;28;20363;-37
2022/04/30 07:41:08;;;;;;;5.68;3.63;;;10.50;99.90;;;;;;5093851;28;20089;-38
2022/04/30 07:43:34;;;;;;;9.00;3.15;;;10.50;99.90;;;;;;5090152;28;20024;-36
2022/04/30 07:45:59;;;;;;;8.38;3.38;;;10.50;99.90;;;;;;5087283;28;20027;-36
2022/04/30 07:48:25;;;;;;;4.15;3.05;;;10.60;99.90;;;;;;5097820;28;20024;-37
2022/04/30 07:50:57;;;;;;;10.77;3.22;;;10.80;99.90;;;;;;5094178;28;20051;-37
2022/04/30 07:53:23;;;;;;;6.20;3.03;;;11.00;99.90;;;;;;5107672;28;20079;-37
2022/04/30 07:55:48;;;;;;;6.40;3.03;;;11.30;99.90;;;;;;5110958;28;20039;-37
2022/04/30 07:58:14;;;;;;;6.93;3.28;;;11.60;99.90;;;;;;5114458;28;20024;-37
2022/04/30 08:00:39;;;;;;;8.10;3.10;;;11.60;99.90;;;;;;5114438;28;20501;-38
2022/04/30 08:03:05;;;;;;;6.60;2.65;;;11.80;99.90;;;;;;5103886;28;20107;-36
2022/04/30 08:05:31;;;;;;;7.10;3.13;;;11.80;99.90;;;;;;5093717;28;20028;-38
2022/04/30 08:07:57;;;;;;;6.38;3.13;;;11.90;99.90;;;;;;5092531;28;20450;-39
2022/04/30 08:10:23;;;;;;;11.90;3.72;;;12.10;99.90;;;;;;5093207;28;20122;-37
2022/04/30 08:12:59;;;;;;;5.38;2.90;;;12.40;99.90;;;;;;5097444;28;20032;-37
2022/04/30 08:15:26;;;;;;;17.90;5.13;;;12.40;99.90;;;;;;5084468;28;20032;-37
2022/04/30 08:17:52;;;;;;;4.53;3.05;;;12.60;99.90;;;;;;5092768;28;20464;-37
2022/04/30 08:20:18;;;;;;;2.88;2.40;;;12.70;99.90;;;;;;5091641;28;20027;-38
2022/04/30 08:22:44;;;;;;;5.13;2.35;;;12.70;99.90;;;;;;5092796;28;20028;-38
2022/04/30 08:25:10;;;;;;;6.07;2.33;;;12.60;99.90;;;;;;5093380;28;20028;-57
2022/04/30 08:27:36;;;;;;;13.13;2.50;;;12.50;99.90;;;;;;5106020;28;20020;-30
2022/04/30 08:30:01;;;;;;;6.75;2.85;;;12.30;99.90;;;;;;5091741;28;20476;-30
2022/04/30 08:32:27;;;;;;;4.47;2.70;;;12.10;99.90;;;;;;5093470;28;20070;-29
2022/04/30 08:34:53;;;;;;;4.47;3.05;;;12.10;99.90;;;;;;5090378;28;20034;-31
2022/04/30 08:37:18;;;;;;;6.90;3.22;;;12.40;99.90;;;;;;5089109;28;20073;-31
2022/04/30 08:39:44;;;;;;;7.32;4.57;;;12.70;99.90;;;;;;5093388;28;20032;-28
2022/04/30 08:42:13;;;;;;;6.75;2.83;;;12.90;99.90;;;;;;5089343;28;20020;-28
2022/04/30 08:44:39;;;;;;;3.70;2.13;;;13.30;99.90;;;;;;5092604;28;20089;-46
2022/04/30 08:47:07;;;;;;;5.85;2.20;;;13.50;99.90;;;;;;5090291;28;20511;-35
2022/04/30 08:49:33;;;;;;;2.63;2.40;;;13.80;99.90;;;;;;5093252;28;20027;-36
2022/04/30 08:51:58;;;;;;;2.53;2.28;;;13.80;99.90;;;;;;5095077;28;20487;-33
2022/04/30 08:54:24;;;;;;;4.25;2.40;;;13.80;99.60;;;;;;5090137;28;20071;-40
2022/04/30 08:56:55;;;;;;;4.93;2.60;;;14.00;99.90;;;;;;5095513;28;20433;-37
2022/04/30 08:59:21;;;;;;;7.22;3.10;;;13.70;99.90;;;;;;5112210;28;20080;-31
2022/04/30 09:01:51;;;;;;;9.35;2.72;;;13.20;99.90;;;;;;5097217;28;20027;-28
2022/04/30 09:04:20;;;;;;;4.13;2.92;;;13.10;99.90;;;;;;5092401;28;20021;-32
2022/04/30 09:06:47;;;;;;;7.25;2.92;;;13.10;99.90;;;;;;5093213;28;20025;-31
2022/04/30 09:09:24;;;;;;;4.03;2.75;;;12.80;99.90;;;;;;5093088;28;20016;-27
2022/04/30 09:11:56;;;;;;;3.95;2.63;;;12.50;99.90;;;;;;5091298;28;20056;-38
2022/04/30 09:14:27;;;;;;;2.80;2.53;;;12.70;99.90;;;;;;5092323;28;20024;-45
2022/04/30 09:17:10;;;;;;;2.90;2.60;;;13.30;99.90;;;;;;5093087;28;20026;-37
2022/04/30 09:19:52;;;;;;;5.90;2.58;;;14.00;99.90;;;;;;5097992;28;20032;-36
2022/04/30 09:22:34;;;;;;;3.60;2.83;;;14.10;99.90;;;;;;5094939;28;20020;-34
2022/04/30 09:25:02;;;;;;;2.83;2.50;;;14.00;99.90;;;;;;5091275;28;20055;-36
2022/04/30 09:27:28;;;;;;;7.45;2.47;;;13.30;99.90;;;;;;5089349;28;20487;-37
2022/04/30 09:29:54;;;;;;;2.08;1.88;;;12.90;99.90;;;;;;5090904;28;20039;-37
2022/04/30 09:32:25;;;;;;;3.35;2.40;;;12.50;99.90;;;;;;5090894;28;20028;-53
2022/04/30 09:37:41;;;;;;;3.05;2.25;;;11.80;99.90;;;;;;5113195;28;20039;-37
2022/04/30 09:40:13;;;;;;;4.47;2.88;;;11.60;99.90;;;;;;5116963;28;20048;-38
2022/04/30 09:42:40;;;;;;;7.18;2.65;;;11.40;99.90;;;;;;5099385;28;20028;-34
2022/04/30 09:45:06;;;;;;;5.07;2.17;;;11.20;99.90;;;;;;5094443;28;20063;-27
2022/04/30 09:47:34;;;;;;;6.72;2.08;;;11.00;99.90;;;;;;5113875;28;20472;-27
2022/04/30 09:55:34;;;;;;;9.18;1.98;;;10.60;99.90;;;;;;5098482;28;20402;-33
2022/04/30 09:58:03;;;;;;;3.58;1.83;;;10.60;99.90;;;;;;5117134;28;20085;-27
2022/04/30 10:00:34;;;;;;;5.00;1.90;;;10.50;99.90;;;;;;5113760;28;20110;-27
2022/04/30 10:03:02;;;;;;;3.97;2.35;;;10.50;99.90;;;;;;5094231;28;20016;-27
2022/04/30 10:05:30;;;;;;;6.47;2.30;;;10.50;99.90;;;;;;5092801;28;20024;-30
2022/04/30 10:07:56;;;;;;;6.35;2.28;;;10.60;99.90;;;;;;5096189;28;20024;-28
2022/04/30 10:10:31;;;;;;;11.82;2.67;;;10.60;99.90;;;;;;5094949;28;20020;-31
2022/04/30 10:13:09;;;;;;;3.63;2.10;;;10.70;99.90;;;;;;5101333;28;20102;-28
2022/04/30 10:15:54;;;;;;;4.18;1.98;;;10.70;99.90;;;;;;5095080;28;20078;-28
2022/04/30 10:18:24;;;;;;;2.25;1.75;;;10.70;99.90;;;;;;5095396;28;20405;-27
2022/04/30 10:20:56;;;;;;;2.85;2.20;;;10.80;99.90;;;;;;5095136;28;20016;-30
2022/04/30 10:23:21;;;;;;;2.60;2.15;;;10.90;99.90;;;;;;5092901;28;20442;-30
2022/04/30 10:25:48;;;;;;;3.80;2.00;;;11.00;99.90;;;;;;5095911;28;20099;-27
2022/04/30 10:28:21;;;;;;;6.38;2.90;;;11.10;99.90;;;;;;5096062;28;20496;-27
2022/04/30 10:31:05;;;;;;;4.97;3.60;;;11.10;99.90;;;;;;5094945;28;20541;-27
2022/04/30 10:33:32;;;;;;;6.32;3.70;;;11.10;99.90;;;;;;5096192;28;20031;-29
2022/04/30 10:36:08;;;;;;;21.10;9.80;;;11.10;99.90;;;;;;5095314;28;20027;-32
2022/04/30 10:38:34;;;;;;;6.78;3.65;;;11.20;99.90;;;;;;5089539;28;20039;-27
2022/04/30 10:41:01;;;;;;;14.85;4.80;;;11.20;99.90;;;;;;5093555;28;20439;-27
2022/04/30 10:43:32;;;;;;;5.83;2.73;;;11.30;99.90;;;;;;5093677;28;20411;-30
2022/04/30 10:45:59;;;;;;;6.60;2.63;;;11.40;99.90;;;;;;5092404;28;20051;-38
2022/04/30 10:48:25;;;;;;;15.57;3.33;;;11.40;99.90;;;;;;5092606;28;20130;-36
2022/04/30 10:51:36;;;;;;;10.27;3.75;;;11.40;99.90;;;;;;5091337;28;20021;-37
2022/04/30 10:54:09;;;;;;;5.60;2.70;;;11.40;99.90;;;;;;5094355;28;20055;-37
2022/04/30 10:56:34;;;;;;;10.38;3.22;;;11.50;99.90;;;;;;5102626;28;20077;-38
2022/04/30 10:59:00;;;;;;;4.65;2.85;;;11.40;99.90;;;;;;5092624;28;20265;-38
2022/04/30 11:01:26;;;;;;;3.80;2.67;;;11.50;99.90;;;;;;5087985;28;20484;-37
2022/04/30 11:03:51;;;;;;;6.38;2.42;;;11.60;99.90;;;;;;5102264;28;20480;-38
2022/04/30 11:06:23;;;;;;;3.45;2.28;;;11.70;99.90;;;;;;5092639;28;20020;-38
2022/04/30 11:09:05;;;;;;;5.40;2.70;;;11.70;99.90;;;;;;5103027;28;20452;-38
2022/04/30 11:11:32;;;;;;;6.32;3.30;;;11.60;99.90;;;;;;5095491;28;20028;-33
2022/04/30 11:14:02;;;;;;;4.88;2.75;;;11.60;99.90;;;;;;5094762;28;20020;-31
2022/04/30 11:16:29;;;;;;;8.00;3.08;;;11.60;99.90;;;;;;5095621;28;20047;-30
2022/04/30 11:19:00;;;;;;;5.47;3.00;;;11.70;99.90;;;;;;5094492;28;20117;-44
2022/04/30 11:21:33;;;;;;;7.95;2.30;;;11.80;99.90;;;;;;5093292;28;20025;-33
2022/04/30 11:23:59;;;;;;;6.82;3.10;;;11.90;99.90;;;;;;5093742;28;20020;-35
2022/04/30 11:26:24;;;;;;;5.07;2.58;;;12.00;99.90;;;;;;5095050;28;20046;-32
2022/04/30 11:28:50;;;;;;;17.77;2.67;;;11.90;99.90;;;;;;5096040;28;20400;-28
2022/04/30 11:31:20;;;;;;;4.70;1.80;;;11.80;99.90;;;;;;5091446;28;20025;-38
2022/04/30 11:33:49;;;;;;;5.88;2.25;;;11.70;99.90;;;;;;5087316;28;20484;-37
2022/04/30 11:36:15;;;;;;;8.07;2.70;;;11.70;99.90;;;;;;5092697;28;20494;-42
2022/04/30 11:38:50;;;;;;;1.92;1.73;;;11.60;99.90;;;;;;5091846;28;20097;-42
2022/04/30 11:41:15;;;;;;;1.80;1.42;;;11.70;99.90;;;;;;5093263;28;20503;-37
2022/04/30 11:43:41;;;;;;;3.03;1.88;;;11.60;99.90;;;;;;5093731;28;20024;-37
2022/04/30 11:46:07;;;;;;;4.38;1.77;;;11.50;99.90;;;;;;5087738;28;20103;-35
2022/04/30 11:48:38;;;;;;;4.53;1.75;;;11.40;99.90;;;;;;5090243;28;20032;-37
2022/04/30 11:51:08;;;;;;;5.63;1.63;;;11.40;99.90;;;;;;5095311;28;20047;-38
2022/04/30 11:53:35;;;;;;;3.53;1.90;;;11.50;99.90;;;;;;5113273;28;20028;-31
2022/04/30 11:56:01;;;;;;;2.00;1.90;;;11.50;99.90;;;;;;5093501;28;20032;-30
2022/04/30 11:58:42;;;;;;;2.50;1.63;;;11.50;99.90;;;;;;5069434;28;20039;-30
2022/04/30 12:01:25;;;;;;;3.25;1.70;;;11.50;99.90;;;;;;5093303;28;20103;-31
2022/04/30 12:03:56;;;;;;;2.20;1.48;;;11.70;99.90;;;;;;5096272;28;20035;-31
2022/04/30 12:06:24;;;;;;;4.90;2.25;;;11.70;99.90;;;;;;5106823;28;20377;-32
2022/04/30 12:08:49;;;;;;;;;;;11.80;99.90;;;;;;5102463;28;20463;-37
2022/04/30 12:11:15;;;;;;;1.98;1.65;;;12.00;99.90;;;;;;5110076;28;19956;-35
2022/04/30 12:13:40;;;;;;;3.05;1.98;;;12.00;99.90;;;;;;5114012;28;20103;-31
2022/04/30 12:16:07;;;;;;;2.60;1.73;;;12.00;99.90;;;;;;5114319;28;20421;-34
2022/04/30 12:26:58;;;;;;;3.70;1.95;;;12.00;99.90;;;;;;5088472;28;20065;-38
2022/04/30 12:29:24;;;;;;;4.50;1.60;;;12.00;99.90;;;;;;5072809;28;20470;-37
2022/04/30 12:31:54;;;;;;;4.13;1.63;;;11.90;99.90;;;;;;5071644;28;20027;-31
2022/04/30 12:34:20;;;;;;;3.92;1.50;;;11.90;99.90;;;;;;5072989;28;20111;-38
2022/04/30 12:36:52;;;;;;;5.95;2.08;;;11.90;99.90;;;;;;5072608;28;20105;-38
2022/04/30 12:39:22;;;;;;;2.53;1.80;;;11.90;99.90;;;;;;5072916;28;20017;-37
2022/04/30 12:41:48;;;;;;;6.13;2.10;;;12.00;99.90;;;;;;5088667;28;20083;-38
2022/04/30 12:44:13;;;;;;;8.35;2.10;;;12.00;99.90;;;;;;5072954;28;20025;-39
2022/04/30 12:46:46;;;;;;;8.20;1.88;;;12.00;99.90;;;;;;5072930;28;20102;-37
2022/04/30 12:49:23;;;;;;;2.83;1.67;;;12.20;99.90;;;;;;5072951;28;20074;-38
2022/04/30 12:51:49;;;;;;;3.10;2.20;;;12.20;99.90;;;;;;5072952;28;20031;-38
2022/04/30 12:54:16;;;;;;;3.55;1.80;;;12.20;99.90;;;;;;5073162;28;20028;-38
2022/04/30 12:56:43;;;;;;;4.70;1.90;;;12.40;99.90;;;;;;5072797;28;20030;-38
2022/04/30 12:59:09;;;;;;;5.28;1.98;;;12.50;99.90;;;;;;5072971;28;20387;-38
2022/04/30 13:01:37;;;;;;;5.30;1.95;;;12.60;99.90;;;;;;5072842;28;20041;-38
2022/04/30 13:04:03;;;;;;;3.13;1.70;;;12.80;99.90;;;;;;5089101;28;20464;-39
2022/04/30 13:06:30;;;;;;;3.28;1.85;;;13.00;99.90;;;;;;5093026;28;20475;-39
2022/04/30 13:14:27;;;;;;;1.60;1.50;;;13.20;99.90;;;;;;5097173;28;20038;-32
2022/04/30 13:16:53;;;;;;;1.88;1.48;;;13.10;99.90;;;;;;5097281;28;20032;-45
2022/04/30 13:19:19;;;;;;;1.52;1.40;;;12.90;99.90;;;;;;5097131;28;20503;-30
2022/04/30 13:21:47;;;;;;;3.15;1.50;;;12.60;99.90;;;;;;5097132;28;20093;-29
2022/04/30 13:24:14;;;;;;;2.78;1.55;;;12.40;99.90;;;;;;5097338;28;20039;-28
2022/04/30 13:26:41;;;;;;;1.83;1.40;;;12.20;99.90;;;;;;5097326;28;20016;-27
2022/04/30 13:29:07;;;;;;;2.35;1.10;;;12.20;99.90;;;;;;5096803;28;20027;-31
2022/04/30 13:31:33;;;;;;;2.67;1.30;;;12.00;99.90;;;;;;5097197;28;20396;-27
2022/04/30 13:33:58;;;;;;;3.13;1.65;;;12.10;99.90;;;;;;5096832;28;20035;-27
2022/04/30 13:36:25;;;;;;;4.07;2.28;;;12.20;99.90;;;;;;5096762;28;20101;-28
2022/04/30 13:38:51;;;;;;;1.25;1.15;;;12.10;99.90;;;;;;5096744;28;20066;-28
2022/04/30 13:41:16;;;;;;;3.60;1.80;;;12.10;99.90;;;;;;5096585;28;20043;-28
2022/04/30 13:43:42;;;;;;;1.73;1.50;;;12.00;99.90;;;;;;5096960;28;20027;-29